Terminal Aerodrome Forecast
Issued by NWS Jackson, KY

Home | Current Version | Previous Version | Text Only | Print | Product List | Glossary On
Versions: 1 2 3 4 5 6 7 8 9 10 11 12
263
FTUS43 KJKL 232324
TAFLOZ
TAF
KLOZ 232324Z 2400/2424 VRB03KT P6SM FEW200
     FM241100 VRB03KT 4SM BR SKC
     FM241400 03004KT P6SM SKC=

USA.gov is the U.S. government's official web portal to all federal, state and local government web resources and services.